Time;durP1;ratioP1;P1;durP2;ratioP2;P2;SDS_P1;SDS_P2;PMS_P1;PMS_P2;Temp;Humidity;BMP_temperature;BMP_pressure;BME280_temperature;BME280_humidity;BME280_pressure;Samples;Min_cycle;Max_cycle;Signal;HPM_P1;HPM_P2
2023/08/05 00:02:24;;;;;;;9.60;4.78;;;;;;;26.16;100.00;100490.09;20882372;28;20052;-70
2023/08/05 00:12:48;;;;;;;9.48;5.00;;;;;;;25.99;100.00;100491.94;20823993;28;20048;-70
2023/08/05 00:23:10;;;;;;;9.05;5.20;;;;;;;25.84;100.00;100492.75;20827191;28;20061;-69
2023/08/05 00:33:20;;;;;;;11.48;4.97;;;;;;;25.63;100.00;100483.88;20814258;28;21187;-70
2023/08/05 00:43:43;;;;;;;9.73;5.70;;;;;;;25.51;100.00;100485.34;20815170;28;20056;-69
2023/08/05 00:54:09;;;;;;;12.20;7.10;;;;;;;25.41;100.00;100474.13;20829795;28;20060;-69
2023/08/05 01:04:32;;;;;;;13.82;7.32;;;;;;;25.26;100.00;100465.91;20795880;28;20084;-69
2023/08/05 01:14:56;;;;;;;15.05;7.00;;;;;;;25.05;100.00;100470.53;20803747;28;20448;-69
2023/08/05 01:25:41;;;;;;;11.18;6.75;;;;;;;24.96;100.00;100465.59;20908465;28;20406;-70
2023/08/05 01:36:03;;;;;;;12.25;6.55;;;;;;;24.84;100.00;100461.63;20909146;28;20087;-69
2023/08/05 01:46:28;;;;;;;12.73;7.28;;;;;;;24.79;100.00;100450.16;20899567;28;20547;-69
2023/08/05 01:56:53;;;;;;;10.63;6.05;;;;;;;24.39;100.00;100439.50;20884875;28;20501;-69
2023/08/05 02:07:17;;;;;;;11.75;7.20;;;;;;;24.16;100.00;100445.91;20909121;28;20448;-69
2023/08/05 02:17:39;;;;;;;11.90;6.60;;;;;;;24.14;100.00;100440.59;20883306;28;20096;-69
2023/08/05 02:28:04;;;;;;;10.52;6.38;;;;;;;23.89;100.00;100450.75;20883967;28;20049;-70
2023/08/05 02:38:27;;;;;;;13.13;6.07;;;;;;;24.01;100.00;100444.78;20903660;28;20056;-68
2023/08/05 02:48:52;;;;;;;11.93;5.55;;;;;;;23.86;100.00;100434.69;20921418;28;20045;-69
2023/08/05 02:59:15;;;;;;;10.75;5.35;;;;;;;23.82;100.00;100435.78;20978503;28;20048;-69
2023/08/05 03:09:39;;;;;;;10.88;5.05;;;;;;;23.73;100.00;100436.16;20895304;28;20069;-68
2023/08/05 03:20:04;;;;;;;6.78;4.75;;;;;;;23.56;100.00;100436.03;20890540;28;20053;-69
2023/08/05 03:30:31;;;;;;;8.73;4.65;;;;;;;23.52;100.00;100435.28;20895722;28;20059;-68
2023/08/05 03:40:55;;;;;;;7.40;3.90;;;;;;;23.36;100.00;100444.94;20819642;28;20118;-68
2023/08/05 03:51:19;;;;;;;6.32;3.80;;;;;;;23.34;100.00;100449.50;20803904;28;20379;-69
2023/08/05 04:01:43;;;;;;;6.80;3.30;;;;;;;23.71;100.00;100451.53;20816640;28;20049;-69
2023/08/05 04:12:09;;;;;;;7.90;3.60;;;;;;;24.20;100.00;100452.97;20889272;28;20049;-70
2023/08/05 04:22:31;;;;;;;9.32;3.33;;;;;;;24.75;100.00;100442.25;20907669;28;20775;-69
2023/08/05 04:32:55;;;;;;;4.53;2.45;;;;;;;25.19;100.00;100443.72;20919863;28;20106;-70
2023/08/05 04:43:18;;;;;;;6.38;3.10;;;;;;;25.71;100.00;100438.41;20896193;28;20096;-69
2023/08/05 04:53:42;;;;;;;5.00;2.88;;;;;;;26.30;100.00;100439.78;20907002;28;20048;-69
2023/08/05 05:04:05;;;;;;;7.70;2.80;;;;;;;26.93;100.00;100441.63;20918328;28;20059;-70
2023/08/05 05:14:32;;;;;;;5.18;2.70;;;;;;;27.71;100.00;100440.66;20883820;28;20053;-69
2023/08/05 05:24:55;;;;;;;6.43;2.70;;;;;;;28.61;100.00;100440.50;20889273;28;20048;-70
2023/08/05 05:35:20;;;;;;;7.28;2.45;;;;;;;29.43;91.52;100439.66;20899323;28;20053;-69
2023/08/05 05:45:42;;;;;;;4.78;2.85;;;;;;;30.56;71.83;100436.22;20909014;28;20041;-70
2023/08/05 05:56:07;;;;;;;6.82;2.22;;;;;;;31.60;59.59;100423.88;20901692;28;20044;-70
2023/08/05 06:06:30;;;;;;;6.10;2.47;;;;;;;32.40;52.47;100433.91;20907703;28;20084;-70
2023/08/05 06:16:55;;;;;;;4.93;2.67;;;;;;;33.04;44.82;100423.19;20893773;28;20493;-69
2023/08/05 06:27:18;;;;;;;3.42;2.03;;;;;;;33.60;45.70;100437.59;20888358;28;20037;-70
2023/08/05 06:37:43;;;;;;;4.80;2.20;;;;;;;34.08;47.57;100428.00;20916956;28;20048;-71
2023/08/05 06:48:06;;;;;;;;;;;;;;;34.44;52.16;100422.03;20911348;28;20547;-71
2023/08/05 06:58:30;;;;;;;5.10;2.33;;;;;;;34.76;50.80;100419.16;20866426;28;19920;-71
2023/08/05 07:08:53;;;;;;;6.82;2.42;;;;;;;34.49;54.81;100414.25;20866824;28;20060;-71
2023/08/05 07:19:17;;;;;;;4.93;2.33;;;;;;;34.56;60.77;100417.31;20902129;28;20060;-70
2023/08/05 07:29:39;;;;;;;4.32;2.38;;;;;;;34.48;57.97;100420.75;20889653;28;20095;-71
2023/08/05 07:39:47;;;;;;;3.42;2.13;;;;;;;34.61;65.39;100431.47;20889986;28;20044;-71
2023/08/05 07:50:11;;;;;;;2.75;1.67;;;;;;;34.89;57.32;100435.38;20890844;28;20628;-71
2023/08/05 08:00:36;;;;;;;6.05;2.30;;;;;;;35.22;45.90;100436.91;20916635;28;20131;-70
2023/08/05 08:10:58;;;;;;;7.10;2.30;;;;;;;35.72;44.30;100444.06;20917078;28;20386;-71
2023/08/05 08:21:23;;;;;;;5.68;2.55;;;;;;;35.86;43.63;100440.00;20863985;28;20114;-70
2023/08/05 08:31:45;;;;;;;3.97;1.92;;;;;;;36.00;43.87;100433.19;20879836;28;20160;-70
2023/08/05 08:42:10;;;;;;;4.72;2.08;;;;;;;36.36;40.91;100437.91;20889442;28;20052;-69
2023/08/05 08:52:36;;;;;;;5.70;2.17;;;;;;;36.46;39.20;100441.50;20851537;28;20041;-70
2023/08/05 09:03:02;;;;;;;5.93;1.80;;;;;;;36.81;38.14;100429.78;20885009;28;20087;-70
2023/08/05 09:13:24;;;;;;;4.47;2.20;;;;;;;36.80;39.36;100428.06;20870448;28;20057;-70
2023/08/05 09:23:49;;;;;;;6.20;2.13;;;;;;;37.05;38.69;100424.56;20874476;28;20626;-70
2023/08/05 09:34:13;;;;;;;5.32;1.80;;;;;;;37.15;38.97;100416.28;20867633;28;20049;-69
2023/08/05 09:44:37;;;;;;;5.50;2.13;;;;;;;37.44;39.31;100416.06;20903621;28;20106;-70
2023/08/05 09:55:04;;;;;;;3.55;2.40;;;;;;;37.58;39.92;100409.16;20942379;28;20044;-70
2023/08/05 10:05:29;;;;;;;5.38;2.25;;;;;;;37.90;40.35;100417.69;20884395;28;20482;-70
2023/08/05 10:15:54;;;;;;;5.93;2.25;;;;;;;37.83;40.87;100414.72;20909105;28;20071;-70
2023/08/05 10:26:44;;;;;;;3.85;2.17;;;;;;;37.90;39.69;100399.25;20866862;28;20036;-70
2023/08/05 10:37:07;;;;;;;6.78;2.80;;;;;;;37.71;34.41;100388.44;20895851;28;20048;-69
2023/08/05 10:47:31;;;;;;;5.35;2.20;;;;;;;37.67;32.83;100388.91;20892107;28;20049;-69
2023/08/05 10:57:54;;;;;;;3.73;2.30;;;;;;;37.76;33.16;100376.91;20911422;28;20520;-70
2023/08/05 11:08:20;;;;;;;6.15;2.40;;;;;;;38.13;32.99;100379.47;20893732;28;20044;-69
2023/08/05 11:18:45;;;;;;;5.43;2.42;;;;;;;37.92;35.12;100381.69;20897965;28;20044;-69
2023/08/05 11:29:10;;;;;;;5.95;2.40;;;;;;;38.06;36.19;100381.16;20889826;28;20053;-70
2023/08/05 11:39:32;;;;;;;4.82;2.47;;;;;;;38.05;35.78;100376.66;20879054;28;20049;-71
2023/08/05 11:49:37;;;;;;;4.60;2.42;;;;;;;37.94;36.65;100372.25;20923878;28;20049;-70
2023/08/05 12:00:05;;;;;;;4.22;2.10;;;;;;;37.58;36.13;100363.19;20902792;28;20056;-70
2023/08/05 12:10:30;;;;;;;4.90;1.85;;;;;;;37.32;35.81;100352.06;20906819;28;20060;-70
2023/08/05 12:20:52;;;;;;;4.18;1.75;;;;;;;37.30;36.17;100359.63;20921472;28;20300;-70
2023/08/05 12:31:16;;;;;;;5.73;2.83;;;;;;;36.96;38.94;100353.91;20909968;28;20048;-70
2023/08/05 12:41:38;;;;;;;4.55;2.53;;;;;;;36.94;39.48;100358.72;20887612;28;20134;-70
2023/08/05 12:52:03;;;;;;;5.07;2.20;;;;;;;37.05;38.34;100344.72;20880581;28;20095;-70
2023/08/05 13:02:25;;;;;;;6.07;2.33;;;;;;;37.10;37.94;100350.63;20900439;28;20117;-71
2023/08/05 13:12:49;;;;;;;4.68;2.40;;;;;;;36.99;40.52;100345.34;20931577;28;20060;-70
2023/08/05 13:23:12;;;;;;;3.85;2.53;;;;;;;36.67;42.08;100343.09;20918439;28;20291;-70
2023/08/05 13:33:16;;;;;;;5.55;2.30;;;;;;;36.38;40.60;100338.72;20902174;28;20043;-70
2023/08/05 13:43:39;;;;;;;5.60;2.47;;;;;;;36.33;40.37;100336.44;20952550;28;20044;-70
2023/08/05 13:54:02;;;;;;;5.63;2.72;;;;;;;36.24;43.11;100332.69;20940364;28;20049;-70
2023/08/05 14:04:25;;;;;;;4.97;2.20;;;;;;;36.16;43.27;100340.84;20909187;28;20092;-70
2023/08/05 14:14:49;;;;;;;4.97;2.28;;;;;;;36.24;43.28;100327.22;20982542;28;20389;-70
2023/08/05 14:25:11;;;;;;;5.63;2.35;;;;;;;36.24;45.13;100312.59;20977000;28;20051;-70
2023/08/05 14:35:36;;;;;;;4.13;2.10;;;;;;;36.33;46.60;100304.31;20981826;28;20094;-70
2023/08/05 14:46:03;;;;;;;8.93;2.80;;;;;;;36.34;49.46;100297.78;20981258;28;20052;-70
2023/08/05 14:56:28;;;;;;;4.13;2.40;;;;;;;36.12;53.12;100289.03;20893903;28;20095;-70
2023/08/05 15:06:50;;;;;;;6.10;2.70;;;;;;;35.52;56.42;100286.59;20820263;28;20059;-70
2023/08/05 15:17:16;;;;;;;6.20;2.30;;;;;;;34.60;64.18;100292.59;20914029;28;20044;-70
2023/08/05 15:27:38;;;;;;;8.45;2.85;;;;;;;34.04;63.97;100297.72;20950885;28;20052;-70
2023/08/05 15:38:03;;;;;;;5.90;2.78;;;;;;;33.59;66.02;100298.91;20977744;28;20093;-70
2023/08/05 15:48:26;;;;;;;6.40;2.67;;;;;;;33.09;73.12;100288.69;20958032;28;20049;-70
2023/08/05 15:58:51;;;;;;;6.13;3.00;;;;;;;32.66;72.97;100291.47;20966190;28;20535;-70
2023/08/05 16:09:13;;;;;;;10.23;3.33;;;;;;;32.36;75.92;100297.63;20970880;28;20050;-70
2023/08/05 16:19:38;;;;;;;9.93;3.60;;;;;;;32.12;84.30;100321.44;20960555;28;20048;-70
2023/08/05 16:30:01;;;;;;;6.88;3.22;;;;;;;31.89;95.06;100321.44;20951190;28;20029;-70
2023/08/05 16:40:24;;;;;;;11.45;3.20;;;;;;;31.66;98.79;100334.19;20877646;28;20114;-70
2023/08/05 16:50:47;;;;;;;6.68;3.22;;;;;;;31.45;100.00;100332.22;20926013;28;20048;-69
2023/08/05 17:01:12;;;;;;;7.90;3.38;;;;;;;31.11;100.00;100325.81;20968705;28;20044;-70
2023/08/05 17:11:35;;;;;;;6.63;3.53;;;;;;;30.89;100.00;100327.41;20971014;28;20381;-69
2023/08/05 17:21:59;;;;;;;7.78;3.03;;;;;;;30.78;100.00;100335.53;20936922;28;20451;-69
2023/08/05 17:32:21;;;;;;;8.18;3.17;;;;;;;30.62;100.00;100350.41;20932034;28;20048;-69
2023/08/05 17:42:45;;;;;;;10.20;4.22;;;;;;;30.40;100.00;100362.84;20961049;28;20057;-69
2023/08/05 17:53:08;;;;;;;20.92;4.15;;;;;;;30.22;100.00;100355.16;20927563;28;20511;-69
2023/08/05 18:03:32;;;;;;;12.32;3.80;;;;;;;29.95;100.00;100355.28;20914148;28;20045;-68
2023/08/05 18:13:55;;;;;;;12.60;3.95;;;;;;;29.81;100.00;100360.78;20910088;28;20056;-70
2023/08/05 18:24:20;;;;;;;9.57;3.42;;;;;;;29.62;100.00;100355.78;20900765;28;20060;-68
2023/08/05 18:34:42;;;;;;;10.05;4.35;;;;;;;29.45;100.00;100375.13;20883238;28;20546;-69
2023/08/05 18:45:08;;;;;;;7.20;3.92;;;;;;;29.16;100.00;100361.63;20888693;28;20379;-69
2023/08/05 18:55:31;;;;;;;7.57;3.58;;;;;;;28.91;100.00;100369.69;20893976;28;20056;-70
2023/08/05 19:05:58;;;;;;;7.97;3.90;;;;;;;28.78;100.00;100360.63;20897095;28;20052;-70
2023/08/05 19:16:21;;;;;;;8.60;3.63;;;;;;;28.57;100.00;100365.56;20873597;28;20048;-70
2023/08/05 19:26:45;;;;;;;8.02;4.10;;;;;;;28.42;100.00;100353.84;20888514;28;20052;-69
2023/08/05 19:36:48;;;;;;;7.18;3.60;;;;;;;28.24;100.00;100346.91;20896629;28;20246;-69
2023/08/05 19:47:13;;;;;;;6.45;3.88;;;;;;;28.10;100.00;100341.44;20881765;28;20044;-70
2023/08/05 19:57:17;;;;;;;7.75;3.85;;;;;;;27.91;100.00;100338.16;20901124;28;20442;-69
2023/08/05 20:07:41;;;;;;;7.50;4.57;;;;;;;27.67;100.00;100338.72;20894369;28;20049;-70
2023/08/05 20:18:04;;;;;;;6.15;3.80;;;;;;;27.58;100.00;100349.25;20889405;28;20433;-69
2023/08/05 20:28:28;;;;;;;7.22;3.50;;;;;;;27.50;100.00;100338.00;20889198;28;20191;-70
2023/08/05 20:38:51;;;;;;;7.82;4.05;;;;;;;27.16;100.00;100337.31;20843850;28;20053;-70
2023/08/05 20:49:16;;;;;;;8.60;3.65;;;;;;;27.13;100.00;100336.63;20923866;28;20044;-70
2023/08/05 20:59:38;;;;;;;7.88;4.07;;;;;;;27.09;100.00;100332.34;20875883;28;20658;-70
2023/08/05 21:09:59;;;;;;;8.30;3.97;;;;;;;27.08;100.00;100333.31;20874789;28;20072;-70
2023/08/05 21:20:21;;;;;;;9.65;4.00;;;;;;;26.98;100.00;100320.28;20897069;28;20051;-70
2023/08/05 21:30:48;;;;;;;8.02;3.47;;;;;;;26.83;100.00;100313.06;20886131;28;20044;-69
2023/08/05 21:41:11;;;;;;;8.63;3.63;;;;;;;26.78;100.00;100298.88;20979510;28;20050;-70
2023/08/05 21:51:36;;;;;;;6.90;3.60;;;;;;;26.49;100.00;100291.59;20918962;28;20068;-70
2023/08/05 22:01:58;;;;;;;8.18;4.50;;;;;;;26.57;100.00;100297.44;20978382;28;20137;-70
2023/08/05 22:12:22;;;;;;;7.90;3.70;;;;;;;26.19;100.00;100275.22;20985360;28;20442;-70
2023/08/05 22:22:45;;;;;;;7.10;3.88;;;;;;;26.28;100.00;100273.88;20920406;28;20048;-70
2023/08/05 22:33:10;;;;;;;9.98;4.22;;;;;;;26.11;100.00;100256.75;20913938;28;20073;-69
2023/08/05 22:43:32;;;;;;;6.75;3.92;;;;;;;25.66;100.00;100260.19;20898379;28;20536;-70
2023/08/05 22:53:57;;;;;;;6.55;3.53;;;;;;;25.88;100.00;100267.97;20893564;28;20071;-70
2023/08/05 23:04:23;;;;;;;10.10;4.57;;;;;;;25.87;100.00;100268.91;20883494;28;20052;-70
2023/08/05 23:14:47;;;;;;;6.63;4.15;;;;;;;26.26;100.00;100251.41;20873374;28;20056;-70
2023/08/05 23:25:10;;;;;;;7.07;3.90;;;;;;;26.34;100.00;100249.16;20968172;28;20404;-70
2023/08/05 23:35:38;;;;;;;9.18;4.30;;;;;;;26.12;100.00;100231.41;20964562;28;20044;-70
2023/08/05 23:46:01;;;;;;;7.57;4.00;;;;;;;25.43;100.00;100230.75;20963755;28;20075;-70
2023/08/05 23:56:25;;;;;;;8.73;4.63;;;;;;;25.68;100.00;100239.31;20964734;28;20517;-70
